createdAt,value
2022-08-23T00:00:12.862Z,49.58
2022-08-23T00:02:42.475Z,49.64
2022-08-23T00:05:12.037Z,49.47
2022-08-23T00:07:43.595Z,49.95
2022-08-23T00:10:13.890Z,49.62
2022-08-23T00:12:42.642Z,49.87
2022-08-23T00:15:13.682Z,49.87
2022-08-23T00:17:42.331Z,49.98
2022-08-23T00:20:13.914Z,50.04
2022-08-23T00:22:43.791Z,49.97
2022-08-23T00:25:13.871Z,50.25
2022-08-23T00:27:42.398Z,50.16
2022-08-23T00:30:12.478Z,49.76
2022-08-23T00:32:41.646Z,50.07
2022-08-23T00:35:12.936Z,50.22
2022-08-23T00:38:30.382Z,50.08
2022-08-23T00:40:47.210Z,50.28
2022-08-23T00:43:35.324Z,50.20
2022-08-23T00:46:27.087Z,50.22
2022-08-23T00:48:56.837Z,50.40
2022-08-23T00:51:31.721Z,50.33
2022-08-23T00:54:13.816Z,50.30
2022-08-23T00:56:41.980Z,50.48
2022-08-23T00:59:10.218Z,50.26
2022-08-23T01:01:38.848Z,50.47
2022-08-23T01:04:07.187Z,50.83
2022-08-23T01:06:41.710Z,50.64
2022-08-23T01:09:15.193Z,50.77
2022-08-23T01:11:49.495Z,50.68
2022-08-23T01:14:28.631Z,50.91
2022-08-23T01:17:01.868Z,50.90
2022-08-23T01:19:37.716Z,50.81
2022-08-23T01:22:13.071Z,51.04
2022-08-23T01:25:06.351Z,51.01
2022-08-23T01:27:38.394Z,51.03
2022-08-23T01:30:11.378Z,50.86
2022-08-23T01:32:45.642Z,50.99
2022-08-23T01:35:14.266Z,51.11
2022-08-23T01:37:42.821Z,51.05
2022-08-23T01:40:16.138Z,51.06
2022-08-23T01:42:44.653Z,52.61
2022-08-23T01:45:15.433Z,51.00
2022-08-23T01:47:43.808Z,51.06
2022-08-23T01:50:15.061Z,51.15
2022-08-23T01:52:46.788Z,51.15
2022-08-23T01:55:19.361Z,51.41
2022-08-23T01:57:51.318Z,51.22
2022-08-23T02:00:26.040Z,51.32
2022-08-23T02:02:53.934Z,51.47
2022-08-23T02:05:22.584Z,51.66
2022-08-23T02:07:50.661Z,51.37
2022-08-23T02:10:21.810Z,51.48
2022-08-23T02:12:51.400Z,51.56
2022-08-23T02:15:21.505Z,51.53
2022-08-23T02:17:49.578Z,51.66
2022-08-23T02:20:20.152Z,51.75
2022-08-23T02:22:50.725Z,51.71
2022-08-23T02:25:20.436Z,51.80
2022-08-23T02:27:48.442Z,51.97
2022-08-23T02:30:17.277Z,52.10
2022-08-23T02:32:45.210Z,52.10
2022-08-23T02:35:15.910Z,52.03
2022-08-23T02:37:43.942Z,52.24
2022-08-23T02:40:12.764Z,52.53
2022-08-23T02:42:44.704Z,52.07
2022-08-23T02:45:13.489Z,52.29
2022-08-23T02:47:46.750Z,52.23
2022-08-23T02:50:20.360Z,52.27
2022-08-23T02:52:55.033Z,52.26
2022-08-23T02:55:23.843Z,52.39
2022-08-23T02:57:53.374Z,52.35
2022-08-23T03:00:22.495Z,52.36
2022-08-23T03:02:51.906Z,52.43
2022-08-23T03:05:20.691Z,52.53
2022-08-23T03:07:48.682Z,52.40
2022-08-23T03:10:17.437Z,52.65
2022-08-23T03:12:55.320Z,52.58
2022-08-23T03:15:23.249Z,52.42
2022-08-23T03:17:51.652Z,52.47
2022-08-23T03:20:19.777Z,52.58
2022-08-23T03:22:55.038Z,52.47
2022-08-23T03:25:27.567Z,52.63
2022-08-23T03:28:08.364Z,52.76
2022-08-23T03:30:40.750Z,52.90
2022-08-23T03:33:10.282Z,52.73
2022-08-23T03:35:38.553Z,53.00
2022-08-23T03:38:08.265Z,52.92
2022-08-23T03:40:36.651Z,52.99
2022-08-23T03:43:05.865Z,53.33
2022-08-23T03:45:35.849Z,52.94
2022-08-23T03:48:04.428Z,53.03
2022-08-23T03:50:35.323Z,53.17
2022-08-23T03:53:03.461Z,52.69
2022-08-23T03:55:34.839Z,53.02
2022-08-23T03:58:10.999Z,53.01
2022-08-23T04:00:40.453Z,52.92
2022-08-23T04:03:10.017Z,53.03
2022-08-23T04:05:54.239Z,53.05
2022-08-23T04:08:31.822Z,52.75
2022-08-23T04:11:03.311Z,53.11
2022-08-23T04:13:31.786Z,53.02
2022-08-23T04:16:05.071Z,53.20
2022-08-23T04:18:34.002Z,53.33
2022-08-23T04:21:06.026Z,53.39
2022-08-23T04:23:35.098Z,53.44
2022-08-23T04:26:03.051Z,53.33
2022-08-23T04:28:34.478Z,53.22
2022-08-23T04:31:05.581Z,53.22
2022-08-23T04:33:35.711Z,53.09
2022-08-23T04:36:09.936Z,53.29
2022-08-23T04:38:38.397Z,53.02
2022-08-23T04:41:25.844Z,53.03
2022-08-23T04:43:56.850Z,52.95
2022-08-23T04:46:33.409Z,52.69
2022-08-23T04:49:02.839Z,52.74
2022-08-23T04:51:33.164Z,52.92
2022-08-23T04:54:01.522Z,52.94
2022-08-23T04:56:45.382Z,55.90
2022-08-23T04:59:21.481Z,52.74
2022-08-23T05:01:51.518Z,52.62
2022-08-23T05:04:19.926Z,52.65
2022-08-23T05:06:48.227Z,52.90
2022-08-23T05:09:20.818Z,52.69
2022-08-23T05:11:50.440Z,52.72
2022-08-23T05:14:19.427Z,52.77
2022-08-23T05:16:47.699Z,52.93
2022-08-23T05:19:18.010Z,52.72
2022-08-23T05:21:48.397Z,52.68
2022-08-23T05:24:16.868Z,52.61
2022-08-23T05:26:47.531Z,52.48
2022-08-23T05:29:15.624Z,52.53
2022-08-23T05:31:50.616Z,52.58
2022-08-23T05:34:22.967Z,52.73
2022-08-23T05:36:59.044Z,52.77
2022-08-23T05:39:36.519Z,52.39
2022-08-23T05:42:08.225Z,52.44
2022-08-23T05:44:37.277Z,52.48
2022-08-23T05:47:10.295Z,52.67
2022-08-23T05:49:48.130Z,52.58
2022-08-23T05:52:16.159Z,52.41
2022-08-23T05:54:45.114Z,52.35
2022-08-23T05:57:45.361Z,52.10
2022-08-23T06:00:15.127Z,52.25
2022-08-23T06:02:52.651Z,52.00
2022-08-23T06:05:22.778Z,51.96
2022-08-23T06:07:51.842Z,52.24
2022-08-23T06:10:22.593Z,52.10
2022-08-23T06:13:03.845Z,52.08
2022-08-23T06:15:33.425Z,52.08
2022-08-23T06:18:02.478Z,51.98
2022-08-23T06:20:32.937Z,52.04
2022-08-23T06:23:03.870Z,51.70
2022-08-23T06:25:32.262Z,51.79
2022-08-23T06:28:15.016Z,51.28
2022-08-23T06:30:43.587Z,50.96
2022-08-23T06:33:13.935Z,50.57
2022-08-23T06:36:12.133Z,50.06
2022-08-23T06:38:58.339Z,50.14
2022-08-23T06:42:00.705Z,50.11
2022-08-23T06:44:31.593Z,50.39
2022-08-23T06:47:13.807Z,50.18
2022-08-23T06:49:41.925Z,50.27
2022-08-23T06:52:49.888Z,50.49
2022-08-23T06:55:36.767Z,50.43
2022-08-23T06:58:16.712Z,50.37
2022-08-23T07:01:35.134Z,50.51
2022-08-23T07:04:30.653Z,50.39
2022-08-23T07:07:16.879Z,50.37
2022-08-23T07:09:46.308Z,50.57
2022-08-23T07:12:14.478Z,50.78
2022-08-23T07:14:44.234Z,50.65
2022-08-23T07:17:14.411Z,50.43
2022-08-23T07:19:44.061Z,50.31
2022-08-23T07:22:12.372Z,50.27
2022-08-23T07:24:40.526Z,50.29
2022-08-23T07:27:10.060Z,50.23
2022-08-23T07:30:16.461Z,50.07
2022-08-23T07:32:46.386Z,49.96
2022-08-23T07:35:22.705Z,50.23
2022-08-23T07:37:53.522Z,50.11
2022-08-23T07:40:22.161Z,49.91
2022-08-23T07:42:58.661Z,50.01
2022-08-23T07:45:27.610Z,49.73
2022-08-23T07:48:02.241Z,49.88
2022-08-23T07:50:34.962Z,49.67
2022-08-23T07:53:04.352Z,49.55
2022-08-23T07:55:32.402Z,49.39
2022-08-23T07:58:20.471Z,49.31
2022-08-23T08:00:56.942Z,49.31
2022-08-23T08:03:40.203Z,49.08
2022-08-23T08:06:17.356Z,49.11
2022-08-23T08:08:46.544Z,49.15
2022-08-23T08:11:20.352Z,48.79
2022-08-23T08:13:51.229Z,48.61
2022-08-23T08:16:23.291Z,48.74
2022-08-23T08:18:56.137Z,48.83
2022-08-23T08:21:42.933Z,48.69
2022-08-23T08:24:29.916Z,48.84
2022-08-23T08:27:14.938Z,48.87
2022-08-23T08:29:53.000Z,48.35
2022-08-23T08:32:23.775Z,48.41
2022-08-23T08:34:54.776Z,48.17
2022-08-23T08:37:24.866Z,48.01
2022-08-23T08:39:54.438Z,47.86
2022-08-23T08:42:59.920Z,47.56
2022-08-23T08:45:42.305Z,47.89
2022-08-23T08:48:25.816Z,48.24
2022-08-23T08:50:59.933Z,47.71
2022-08-23T08:53:39.389Z,47.17
2022-08-23T08:56:21.544Z,47.45
2022-08-23T08:59:02.472Z,47.30
2022-08-23T09:01:36.611Z,47.08
2022-08-23T09:04:05.569Z,47.17
2022-08-23T09:06:43.805Z,46.86
2022-08-23T09:09:22.104Z,46.40
2022-08-23T09:12:06.554Z,45.33
2022-08-23T09:15:22.601Z,43.66
2022-08-23T09:17:57.726Z,46.62
2022-08-23T09:20:33.098Z,46.34
2022-08-23T09:23:12.312Z,46.59
2022-08-23T09:25:42.481Z,46.21
2022-08-23T09:28:17.227Z,46.27
2022-08-23T09:30:52.965Z,46.56
2022-08-23T09:33:26.241Z,46.03
2022-08-23T09:36:08.440Z,45.39
2022-08-23T09:38:52.062Z,45.32
2022-08-23T09:41:27.040Z,45.89
2022-08-23T09:44:02.339Z,45.85
2022-08-23T09:46:35.869Z,45.80
2022-08-23T09:49:25.420Z,45.03
2022-08-23T09:51:57.684Z,45.83
2022-08-23T09:54:31.282Z,45.78
2022-08-23T09:57:02.660Z,45.14
2022-08-23T09:59:41.236Z,44.75
2022-08-23T10:02:24.185Z,44.97
2022-08-23T10:05:03.032Z,43.58
2022-08-23T10:07:42.430Z,45.10
2022-08-23T10:10:21.299Z,45.20
2022-08-23T10:12:49.566Z,44.58
2022-08-23T10:15:19.063Z,44.70
2022-08-23T10:17:59.296Z,44.71
2022-08-23T10:20:48.614Z,44.24
2022-08-23T10:23:35.705Z,44.46
2022-08-23T10:26:04.069Z,44.43
2022-08-23T10:29:04.941Z,44.03
2022-08-23T10:31:44.418Z,44.68
2022-08-23T10:34:25.741Z,43.82
2022-08-23T10:37:14.383Z,44.33
2022-08-23T10:39:48.070Z,44.98
2022-08-23T10:42:29.239Z,44.93
2022-08-23T10:45:05.328Z,44.21
2022-08-23T10:47:38.931Z,44.79
2022-08-23T10:50:13.586Z,44.61
2022-08-23T10:52:58.737Z,44.07
2022-08-23T10:55:44.216Z,44.37
2022-08-23T10:58:17.955Z,44.52
2022-08-23T11:00:49.397Z,44.56
2022-08-23T11:03:29.078Z,44.16
2022-08-23T11:06:42.053Z,43.13
2022-08-23T11:09:48.838Z,42.83
2022-08-23T11:12:27.230Z,43.65
2022-08-23T11:15:20.577Z,43.01
2022-08-23T11:18:12.312Z,41.58
2022-08-23T11:21:33.655Z,41.47
2022-08-23T11:24:49.347Z,42.98
2022-08-23T11:27:34.523Z,43.47
2022-08-23T11:30:43.291Z,41.66
2022-08-23T11:33:22.739Z,42.49
2022-08-23T11:35:53.496Z,43.80
2022-08-23T11:38:52.223Z,40.79
2022-08-23T11:41:26.923Z,43.48
2022-08-23T11:44:30.272Z,43.40
2022-08-23T11:47:07.378Z,43.84
2022-08-23T11:50:19.387Z,42.41
2022-08-23T11:53:15.303Z,42.92
2022-08-23T11:56:31.242Z,40.62
2022-08-23T11:59:15.600Z,43.29
2022-08-23T12:01:45.539Z,43.65
2022-08-23T12:04:31.738Z,42.50
2022-08-23T12:07:05.743Z,43.16
2022-08-23T12:09:57.896Z,41.55
2022-08-23T12:12:39.996Z,42.92
2022-08-23T12:15:12.044Z,43.52
2022-08-23T12:18:11.985Z,41.79
2022-08-23T12:20:41.617Z,43.29
2022-08-23T12:23:18.222Z,42.85
2022-08-23T12:25:46.665Z,43.46
2022-08-23T12:28:44.223Z,37.21
2022-08-23T12:31:34.931Z,40.01
2022-08-23T12:34:25.233Z,40.35
2022-08-23T12:37:07.650Z,42.21
2022-08-23T12:39:40.914Z,42.59
2022-08-23T12:42:18.306Z,40.68
2022-08-23T12:44:59.664Z,42.85
2022-08-23T12:47:27.972Z,42.85
2022-08-23T12:50:00.371Z,42.42
2022-08-23T12:52:31.450Z,42.16
2022-08-23T12:54:59.849Z,42.36
2022-08-23T12:57:38.416Z,42.75
2022-08-23T13:00:20.430Z,40.75
2022-08-23T13:02:59.316Z,42.71
2022-08-23T13:05:38.012Z,41.93
2022-08-23T13:08:10.292Z,42.27
2022-08-23T13:10:41.539Z,42.22
2022-08-23T13:13:14.810Z,42.11
2022-08-23T13:15:52.198Z,42.39
2022-08-23T13:18:33.315Z,38.22
2022-08-23T13:21:28.888Z,40.74
2022-08-23T13:24:02.518Z,42.21
2022-08-23T13:26:38.566Z,42.00
2022-08-23T13:29:23.406Z,39.20
2022-08-23T13:32:03.478Z,41.92
2022-08-23T13:34:40.302Z,42.91
2022-08-23T13:37:26.715Z,41.25
2022-08-23T13:39:58.378Z,42.70
2022-08-23T13:42:35.094Z,42.13
2022-08-23T13:45:10.411Z,41.13
2022-08-23T13:47:39.835Z,42.18
2022-08-23T13:50:17.086Z,41.76
2022-08-23T13:53:11.547Z,41.93
2022-08-23T13:55:42.324Z,41.19
2022-08-23T13:58:13.825Z,41.65
2022-08-23T14:00:45.869Z,41.72
2022-08-23T14:03:26.145Z,41.91
2022-08-23T14:05:54.587Z,41.73
2022-08-23T14:08:23.003Z,41.94
2022-08-23T14:10:51.365Z,41.64
2022-08-23T14:13:24.376Z,41.59
2022-08-23T14:16:32.924Z,42.26
2022-08-23T14:21:31.493Z,42.12
2022-08-23T14:23:59.387Z,41.75
2022-08-23T14:26:27.531Z,41.60
2022-08-23T14:28:55.477Z,42.02
2022-08-23T14:31:33.257Z,41.13
2022-08-23T14:34:02.746Z,41.94
2022-08-23T14:36:30.925Z,41.79
2022-08-23T14:38:58.881Z,41.62
2022-08-23T14:41:28.640Z,41.72
2022-08-23T14:43:56.736Z,41.35
2022-08-23T14:46:28.058Z,41.34
2022-08-23T14:48:58.282Z,41.80
2022-08-23T14:51:32.183Z,41.49
2022-08-23T14:54:01.075Z,41.59
2022-08-23T14:56:33.655Z,41.84
2022-08-23T14:59:01.763Z,40.91
2022-08-23T15:01:29.780Z,41.29
2022-08-23T15:04:00.314Z,41.38
2022-08-23T15:06:29.866Z,41.25
2022-08-23T15:08:57.872Z,41.19
2022-08-23T15:14:13.834Z,41.89
2022-08-23T15:16:41.892Z,41.46
2022-08-23T15:19:09.918Z,41.75
2022-08-23T15:21:39.340Z,41.39
2022-08-23T15:24:09.609Z,41.31
2022-08-23T15:26:37.823Z,41.61
2022-08-23T15:31:50.301Z,41.81
2022-08-23T15:34:21.972Z,41.71
2022-08-23T15:36:51.799Z,41.79
2022-08-23T15:39:19.706Z,41.50
2022-08-23T15:41:47.721Z,41.58
2022-08-23T15:44:15.574Z,41.65
2022-08-23T15:46:50.031Z,41.60
2022-08-23T15:49:19.673Z,41.58
2022-08-23T15:52:13.815Z,39.19
2022-08-23T15:54:46.812Z,35.61
2022-08-23T15:57:17.625Z,41.83
2022-08-23T15:59:46.244Z,41.77
2022-08-23T16:02:14.328Z,41.67
2022-08-23T16:04:42.376Z,41.67
2022-08-23T16:07:14.277Z,41.59
2022-08-23T16:09:43.652Z,41.65
2022-08-23T16:12:11.672Z,41.86
2022-08-23T16:14:40.283Z,41.69
2022-08-23T16:17:16.036Z,41.22
2022-08-23T16:19:50.514Z,40.99
2022-08-23T16:22:18.629Z,41.51
2022-08-23T16:24:47.974Z,41.56
2022-08-23T16:27:16.054Z,41.66
2022-08-23T16:29:52.821Z,40.91
2022-08-23T16:32:22.901Z,41.50
2022-08-23T16:34:54.361Z,40.92
2022-08-23T16:37:22.269Z,41.00
2022-08-23T16:39:53.071Z,41.21
2022-08-23T16:42:22.269Z,41.41
2022-08-23T16:44:53.187Z,41.46
2022-08-23T16:47:21.298Z,41.70
2022-08-23T16:49:55.719Z,41.15
2022-08-23T16:52:28.773Z,41.55
2022-08-23T16:55:12.752Z,40.18
2022-08-23T16:57:41.935Z,41.29
2022-08-23T17:00:16.301Z,41.25
2022-08-23T17:02:44.846Z,41.42
2022-08-23T17:05:19.944Z,41.40
2022-08-23T17:07:48.116Z,41.60
2022-08-23T17:10:19.392Z,41.68
2022-08-23T17:12:51.033Z,41.85
2022-08-23T17:15:23.507Z,41.63
2022-08-23T17:17:51.749Z,41.80
2022-08-23T17:20:22.360Z,41.39
2022-08-23T17:22:50.875Z,41.69
2022-08-23T17:25:21.124Z,41.71
2022-08-23T17:27:51.116Z,41.73
2022-08-23T17:30:22.168Z,42.08
2022-08-23T17:35:55.848Z,42.37
2022-08-23T17:41:56.735Z,41.51
2022-08-23T17:44:42.664Z,42.40
2022-08-23T17:47:39.244Z,42.23
2022-08-23T17:50:14.941Z,42.53
2022-08-23T17:52:45.349Z,42.77
2022-08-23T17:55:25.612Z,42.58
2022-08-23T17:58:04.423Z,42.61
2022-08-23T18:00:45.799Z,42.95
2022-08-23T18:03:40.160Z,43.02
2022-08-23T18:06:28.181Z,43.11
2022-08-23T18:09:08.723Z,43.36
2022-08-23T18:11:44.575Z,43.35
2022-08-23T18:14:31.625Z,43.05
2022-08-23T18:16:59.666Z,43.28
2022-08-23T18:19:27.548Z,43.15
2022-08-23T18:21:59.530Z,43.28
2022-08-23T18:24:30.288Z,43.68
2022-08-23T18:27:19.621Z,43.70
2022-08-23T18:30:08.545Z,43.12
2022-08-23T18:32:36.929Z,43.91
2022-08-23T18:35:11.493Z,43.50
2022-08-23T18:37:44.785Z,43.95
2022-08-23T18:40:14.157Z,43.66
2022-08-23T18:42:47.445Z,44.00
2022-08-23T18:45:25.580Z,44.11
2022-08-23T18:47:53.552Z,43.80
2022-08-23T18:50:26.925Z,43.83
2022-08-23T18:52:55.318Z,43.96
2022-08-23T18:55:25.286Z,44.37
2022-08-23T18:57:57.753Z,44.13
2022-08-23T19:00:39.739Z,44.34
2022-08-23T19:03:09.040Z,44.52
2022-08-23T19:05:41.969Z,44.37
2022-08-23T19:08:16.266Z,44.32
2022-08-23T19:10:47.430Z,44.68
2022-08-23T19:13:19.902Z,44.48
2022-08-23T19:15:51.874Z,44.32
2022-08-23T19:18:24.304Z,44.29
2022-08-23T19:20:52.601Z,44.69
2022-08-23T19:23:23.535Z,44.67
2022-08-23T19:25:56.499Z,44.64
2022-08-23T19:28:26.905Z,44.50
2022-08-23T19:30:58.808Z,44.75
2022-08-23T19:33:34.033Z,44.85
2022-08-23T19:36:05.224Z,44.67
2022-08-23T19:38:37.973Z,44.62
2022-08-23T19:41:06.673Z,44.86
2022-08-23T19:43:40.928Z,44.78
2022-08-23T19:46:15.883Z,45.00
2022-08-23T19:48:46.207Z,44.65
2022-08-23T19:51:19.713Z,45.00
2022-08-23T19:54:13.235Z,44.71
2022-08-23T19:56:44.718Z,44.88
2022-08-23T19:59:17.924Z,44.85
2022-08-23T20:01:47.969Z,45.04
2022-08-23T20:04:17.062Z,44.93
2022-08-23T20:06:53.289Z,45.06
2022-08-23T20:09:23.386Z,45.03
2022-08-23T20:11:53.341Z,44.96
2022-08-23T20:14:22.526Z,44.92
2022-08-23T20:16:52.841Z,44.82
2022-08-23T20:19:22.707Z,44.66
2022-08-23T20:21:50.961Z,44.69
2022-08-23T20:24:28.807Z,44.71
2022-08-23T20:27:06.014Z,44.88
2022-08-23T20:29:34.114Z,44.82
2022-08-23T20:32:06.126Z,44.88
2022-08-23T20:34:37.096Z,44.88
2022-08-23T20:37:05.864Z,45.05
2022-08-23T20:39:37.016Z,45.17
2022-08-23T20:42:08.229Z,45.02
2022-08-23T20:44:37.553Z,44.95
2022-08-23T20:47:22.455Z,44.97
2022-08-23T20:49:56.440Z,45.06
2022-08-23T20:52:24.156Z,44.57
2022-08-23T20:54:57.572Z,45.09
2022-08-23T20:57:25.628Z,45.19
2022-08-23T20:59:58.821Z,45.30
2022-08-23T21:02:28.291Z,45.16
2022-08-23T21:04:57.983Z,45.30
2022-08-23T21:07:28.038Z,45.42
2022-08-23T21:09:59.259Z,45.21
2022-08-23T21:12:35.068Z,45.27
2022-08-23T21:15:10.913Z,45.37
2022-08-23T21:17:41.124Z,45.27
2022-08-23T21:20:19.052Z,45.35
2022-08-23T21:22:53.189Z,45.50
2022-08-23T21:25:21.457Z,45.38
2022-08-23T21:27:52.214Z,45.39
2022-08-23T21:30:20.389Z,45.41
2022-08-23T21:32:50.000Z,45.35
2022-08-23T21:35:18.021Z,45.29
2022-08-23T21:37:46.079Z,45.47
2022-08-23T21:40:14.482Z,45.40
2022-08-23T21:42:42.487Z,45.37
2022-08-23T21:45:13.284Z,45.47
2022-08-23T21:48:05.691Z,45.46
2022-08-23T21:50:33.746Z,45.52
2022-08-23T21:53:05.082Z,45.67
2022-08-23T21:55:37.072Z,45.58
2022-08-23T21:58:07.608Z,45.77
2022-08-23T22:00:37.946Z,45.99
2022-08-23T22:03:09.179Z,45.97
2022-08-23T22:05:42.566Z,46.37
2022-08-23T22:08:14.373Z,46.26
2022-08-23T22:10:57.346Z,46.28
2022-08-23T22:13:28.634Z,46.29
2022-08-23T22:15:56.924Z,46.31
2022-08-23T22:18:26.403Z,46.30
2022-08-23T22:20:55.211Z,46.34
2022-08-23T22:23:26.733Z,46.23
2022-08-23T22:25:58.377Z,46.40
2022-08-23T22:28:31.282Z,46.58
2022-08-23T22:31:04.764Z,46.40
2022-08-23T22:33:52.974Z,46.50
2022-08-23T22:36:23.548Z,46.52
2022-08-23T22:38:52.680Z,46.62
2022-08-23T22:41:25.646Z,47.02
2022-08-23T22:43:56.885Z,47.02
2022-08-23T22:46:28.947Z,47.06
2022-08-23T22:48:58.358Z,47.15
2022-08-23T22:51:28.771Z,47.04
2022-08-23T22:54:00.232Z,47.13
2022-08-23T22:56:31.184Z,47.03
2022-08-23T22:58:59.880Z,47.18
2022-08-23T23:01:30.517Z,47.13
2022-08-23T23:04:01.053Z,47.11
2022-08-23T23:06:29.565Z,47.28
2022-08-23T23:09:13.794Z,47.55
2022-08-23T23:11:42.423Z,48.85
2022-08-23T23:14:12.317Z,47.42
2022-08-23T23:16:41.076Z,47.49
2022-08-23T23:19:28.186Z,47.63
2022-08-23T23:21:58.388Z,47.72
2022-08-23T23:24:34.877Z,47.38
2022-08-23T23:27:05.622Z,47.65
2022-08-23T23:29:34.576Z,48.05
2022-08-23T23:32:04.707Z,47.58
2022-08-23T23:34:39.118Z,47.78
2022-08-23T23:37:07.100Z,47.92
2022-08-23T23:39:38.395Z,47.71
2022-08-23T23:42:08.862Z,47.81
2022-08-23T23:44:36.843Z,47.86
2022-08-23T23:47:05.678Z,48.00
2022-08-23T23:49:33.804Z,47.88
2022-08-23T23:52:05.137Z,48.02
2022-08-23T23:54:36.034Z,47.92
2022-08-23T23:57:05.732Z,48.24
2022-08-23T23:59:33.894Z,48.14
